createdAt,value
2023-03-07T00:02:21.378Z,53.86
2023-03-07T00:04:51.648Z,54.17
2023-03-07T00:07:31.574Z,53.95
2023-03-07T00:10:11.229Z,54.75
2023-03-07T00:12:49.443Z,54.03
2023-03-07T00:15:24.436Z,53.85
2023-03-07T00:18:06.603Z,54.47
2023-03-07T00:20:36.914Z,54.71
2023-03-07T00:23:07.084Z,53.73
2023-03-07T00:25:37.447Z,54.14
2023-03-07T00:28:07.592Z,54.19
2023-03-07T00:30:37.776Z,53.91
2023-03-07T00:33:07.974Z,54.04
2023-03-07T00:35:38.115Z,54.09
2023-03-07T00:38:08.296Z,54.69
2023-03-07T00:40:41.529Z,53.87
2023-03-07T00:43:13.800Z,54.28
2023-03-07T00:45:44.021Z,54.64
2023-03-07T00:48:14.250Z,54.08
2023-03-07T00:50:47.510Z,54.58
2023-03-07T00:53:27.207Z,54.38
2023-03-07T00:56:18.740Z,55.23
2023-03-07T00:58:49.697Z,54.33
2023-03-07T01:01:23.489Z,54.58
2023-03-07T01:04:02.970Z,54.17
2023-03-07T01:06:53.888Z,55.48
2023-03-07T01:09:24.020Z,54.44
2023-03-07T01:11:54.146Z,54.25
2023-03-07T01:14:26.048Z,54.36
2023-03-07T01:16:56.287Z,54.48
2023-03-07T01:19:26.481Z,54.21
2023-03-07T01:21:59.592Z,54.21
2023-03-07T01:27:22.756Z,54.65
2023-03-07T01:29:56.181Z,54.38
2023-03-07T01:32:33.847Z,54.68
2023-03-07T01:35:10.889Z,54.58
2023-03-07T01:37:41.621Z,54.80
2023-03-07T01:40:26.748Z,54.89
2023-03-07T01:43:26.237Z,55.69
2023-03-07T01:46:01.740Z,57.57
2023-03-07T01:48:40.971Z,54.84
2023-03-07T01:51:11.660Z,54.77
2023-03-07T01:53:41.848Z,54.78
2023-03-07T01:56:12.096Z,55.33
2023-03-07T01:58:47.682Z,55.30
2023-03-07T02:01:18.560Z,55.24
2023-03-07T02:03:57.945Z,55.55
2023-03-07T02:06:38.876Z,55.65
2023-03-07T02:09:22.256Z,55.72
2023-03-07T02:12:01.862Z,55.68
2023-03-07T02:14:34.773Z,55.40
2023-03-07T02:17:04.969Z,55.94
2023-03-07T02:20:01.136Z,56.60
2023-03-07T02:22:31.466Z,56.06
2023-03-07T02:25:13.814Z,55.69
2023-03-07T02:27:46.376Z,56.00
2023-03-07T02:30:18.694Z,55.70
2023-03-07T02:32:54.363Z,56.43
2023-03-07T02:35:31.339Z,56.01
2023-03-07T02:38:13.630Z,55.50
2023-03-07T02:40:43.980Z,55.69
2023-03-07T02:43:18.958Z,56.12
2023-03-07T02:45:49.275Z,56.28
2023-03-07T02:48:19.493Z,55.88
2023-03-07T02:50:54.668Z,55.92
2023-03-07T02:53:25.167Z,55.95
2023-03-07T02:55:58.244Z,56.29
2023-03-07T02:58:30.180Z,56.26
2023-03-07T03:01:07.202Z,57.27
2023-03-07T03:03:37.565Z,55.99
2023-03-07T03:06:07.784Z,56.68
2023-03-07T03:08:37.955Z,56.54
2023-03-07T03:11:08.172Z,56.45
2023-03-07T03:13:39.073Z,56.65
2023-03-07T03:16:09.416Z,56.66
2023-03-07T03:18:39.580Z,56.49
2023-03-07T03:21:11.297Z,56.73
2023-03-07T03:23:41.614Z,56.51
2023-03-07T03:26:12.007Z,56.29
2023-03-07T03:28:42.193Z,56.87
2023-03-07T03:31:16.684Z,56.63
2023-03-07T03:33:47.120Z,56.58
2023-03-07T03:36:17.483Z,56.99
2023-03-07T03:38:52.180Z,57.03
2023-03-07T03:41:22.353Z,56.84
2023-03-07T03:43:52.906Z,57.08
2023-03-07T03:46:26.106Z,56.95
2023-03-07T03:48:56.726Z,56.54
2023-03-07T03:51:27.245Z,56.83
2023-03-07T03:54:00.139Z,56.76
2023-03-07T03:56:38.928Z,57.09
2023-03-07T03:59:09.150Z,56.83
2023-03-07T04:01:39.331Z,56.91
2023-03-07T04:04:09.488Z,56.78
2023-03-07T04:06:39.673Z,57.01
2023-03-07T04:09:10.715Z,57.11
2023-03-07T04:11:40.932Z,56.94
2023-03-07T04:14:11.502Z,57.00
2023-03-07T04:16:42.275Z,57.30
2023-03-07T04:19:15.777Z,57.17
2023-03-07T04:21:48.785Z,57.44
2023-03-07T04:24:18.946Z,57.04
2023-03-07T04:26:49.155Z,57.55
2023-03-07T04:29:38.575Z,57.92
2023-03-07T04:32:09.933Z,57.34
2023-03-07T04:34:40.197Z,57.15
2023-03-07T04:37:10.289Z,57.24
2023-03-07T04:39:40.528Z,57.54
2023-03-07T04:42:10.628Z,57.51
2023-03-07T04:44:40.822Z,57.64
2023-03-07T04:47:11.016Z,57.97
2023-03-07T04:49:41.098Z,57.75
2023-03-07T04:52:11.243Z,57.84
2023-03-07T04:54:41.479Z,57.93
2023-03-07T04:57:18.212Z,57.77
2023-03-07T04:59:48.350Z,58.06
2023-03-07T05:02:18.923Z,57.62
2023-03-07T05:04:49.151Z,58.05
2023-03-07T05:07:19.467Z,57.90
2023-03-07T05:09:49.719Z,58.23
2023-03-07T05:12:21.920Z,58.18
2023-03-07T05:14:52.072Z,58.29
2023-03-07T05:17:22.211Z,57.88
2023-03-07T05:19:58.063Z,58.59
2023-03-07T05:22:40.570Z,58.79
2023-03-07T05:25:20.734Z,58.65
2023-03-07T05:27:57.144Z,59.06
2023-03-07T05:30:27.403Z,58.95
2023-03-07T05:32:57.594Z,58.84
2023-03-07T05:35:27.808Z,58.55
2023-03-07T05:37:58.183Z,58.37
2023-03-07T05:40:28.364Z,58.52
2023-03-07T05:42:59.858Z,58.92
2023-03-07T05:45:30.242Z,59.10
2023-03-07T05:48:00.355Z,59.02
2023-03-07T05:50:31.030Z,58.89
2023-03-07T05:53:01.176Z,59.31
2023-03-07T05:55:31.392Z,59.27
2023-03-07T05:58:01.672Z,59.03
2023-03-07T06:00:32.106Z,58.76
2023-03-07T06:03:05.442Z,59.33
2023-03-07T06:05:35.689Z,59.11
2023-03-07T06:08:07.267Z,58.87
2023-03-07T06:10:40.309Z,59.27
2023-03-07T06:13:16.962Z,59.54
2023-03-07T06:15:55.286Z,59.90
2023-03-07T06:18:26.384Z,59.91
2023-03-07T06:20:58.973Z,59.20
2023-03-07T06:23:31.629Z,58.84
2023-03-07T06:26:02.997Z,59.56
2023-03-07T06:28:33.267Z,59.58
2023-03-07T06:31:12.164Z,60.49
2023-03-07T06:33:43.607Z,59.52
2023-03-07T06:36:16.804Z,59.28
2023-03-07T06:38:47.730Z,59.87
2023-03-07T06:41:18.254Z,59.73
2023-03-07T06:43:52.937Z,60.56
2023-03-07T06:46:23.136Z,59.89
2023-03-07T06:48:55.302Z,59.84
2023-03-07T06:51:25.538Z,60.36
2023-03-07T06:53:55.738Z,60.52
2023-03-07T06:56:27.731Z,60.45
2023-03-07T06:58:58.391Z,60.46
2023-03-07T07:01:28.783Z,60.11
2023-03-07T07:04:10.509Z,60.87
2023-03-07T07:06:40.820Z,60.64
2023-03-07T07:09:14.300Z,60.44
2023-03-07T07:11:44.549Z,60.18
2023-03-07T07:14:16.544Z,60.79
2023-03-07T07:16:46.791Z,60.78
2023-03-07T07:19:17.288Z,60.24
2023-03-07T07:21:50.416Z,60.09
2023-03-07T07:24:20.648Z,60.13
2023-03-07T07:26:50.882Z,59.77
2023-03-07T07:29:21.278Z,59.83
2023-03-07T07:31:51.627Z,59.70
2023-03-07T07:34:21.990Z,59.76
2023-03-07T07:36:53.303Z,59.07
2023-03-07T07:39:24.595Z,59.39
2023-03-07T07:41:54.886Z,59.62
2023-03-07T07:44:31.632Z,59.49
2023-03-07T07:47:02.294Z,59.04
2023-03-07T07:49:32.545Z,58.95
2023-03-07T07:52:02.759Z,58.66
2023-03-07T07:54:32.985Z,59.07
2023-03-07T07:57:03.340Z,58.75
2023-03-07T07:59:34.359Z,58.23
2023-03-07T08:02:04.630Z,58.14
2023-03-07T08:04:35.732Z,57.94
2023-03-07T08:07:06.031Z,58.01
2023-03-07T08:09:36.313Z,58.15
2023-03-07T08:12:07.191Z,57.36
2023-03-07T08:14:37.518Z,57.17
2023-03-07T08:17:07.734Z,57.38
2023-03-07T08:19:37.958Z,57.08
2023-03-07T08:22:08.287Z,56.72
2023-03-07T08:24:40.970Z,56.25
2023-03-07T08:27:11.280Z,56.24
2023-03-07T08:29:41.462Z,57.03
2023-03-07T08:32:14.661Z,56.54
2023-03-07T08:34:44.887Z,56.24
2023-03-07T08:37:15.047Z,55.96
2023-03-07T08:39:45.319Z,55.80
2023-03-07T08:42:15.621Z,56.67
2023-03-07T08:44:45.836Z,56.08
2023-03-07T08:47:16.032Z,55.48
2023-03-07T08:49:46.280Z,55.63
2023-03-07T08:52:16.468Z,54.79
2023-03-07T08:54:46.629Z,54.46
2023-03-07T08:57:16.859Z,54.02
2023-03-07T08:59:47.115Z,53.85
2023-03-07T09:02:17.457Z,53.46
2023-03-07T09:04:47.767Z,53.51
2023-03-07T09:07:19.622Z,53.02
2023-03-07T09:09:50.142Z,53.20
2023-03-07T09:12:25.204Z,52.31
2023-03-07T09:14:57.832Z,52.26
2023-03-07T09:17:28.055Z,51.56
2023-03-07T09:19:58.608Z,51.59
2023-03-07T09:22:28.903Z,52.00
2023-03-07T09:24:59.332Z,51.95
2023-03-07T09:27:29.591Z,51.57
2023-03-07T09:29:59.816Z,51.38
2023-03-07T09:32:33.211Z,50.27
2023-03-07T09:35:04.021Z,50.52
2023-03-07T09:37:34.259Z,50.82
2023-03-07T09:40:08.354Z,50.74
2023-03-07T09:43:02.337Z,50.98
2023-03-07T09:45:57.567Z,49.27
2023-03-07T09:48:55.500Z,49.68
2023-03-07T09:51:34.195Z,50.70
2023-03-07T09:54:09.372Z,50.88
2023-03-07T09:56:48.811Z,50.67
2023-03-07T09:59:34.898Z,50.66
2023-03-07T10:02:29.497Z,51.22
2023-03-07T10:05:08.878Z,51.67
2023-03-07T10:07:40.076Z,51.68
2023-03-07T10:10:20.789Z,51.11
2023-03-07T10:13:02.203Z,51.15
2023-03-07T10:15:47.807Z,51.65
2023-03-07T10:18:30.496Z,51.73
2023-03-07T10:21:09.842Z,52.04
2023-03-07T10:24:05.113Z,52.34
2023-03-07T10:26:42.115Z,52.16
2023-03-07T10:29:19.720Z,53.19
2023-03-07T10:31:56.459Z,53.69
2023-03-07T10:34:32.524Z,53.57
2023-03-07T10:37:20.927Z,54.84
2023-03-07T10:39:53.781Z,53.29
2023-03-07T10:42:27.884Z,53.79
2023-03-07T10:44:58.395Z,53.91
2023-03-07T10:47:29.527Z,54.46
2023-03-07T10:50:36.233Z,55.94
2023-03-07T10:53:16.414Z,54.96
2023-03-07T10:55:47.026Z,55.01
2023-03-07T10:58:28.375Z,56.48
2023-03-07T11:01:08.378Z,57.66
2023-03-07T11:03:52.071Z,56.56
2023-03-07T11:06:56.533Z,60.98
2023-03-07T11:09:32.154Z,58.72
2023-03-07T11:12:05.469Z,59.40
2023-03-07T11:15:09.122Z,61.67
2023-03-07T11:17:48.197Z,61.55
2023-03-07T11:20:22.812Z,60.94
2023-03-07T11:23:17.078Z,64.61
2023-03-07T11:25:47.334Z,61.69
2023-03-07T11:28:37.668Z,66.03
2023-03-07T11:31:54.668Z,65.96
2023-03-07T11:34:24.841Z,62.45
2023-03-07T11:37:01.243Z,62.78
2023-03-07T11:39:44.225Z,65.40
2023-03-07T11:42:24.381Z,64.04
2023-03-07T11:45:03.926Z,64.89
2023-03-07T11:47:43.988Z,62.99
2023-03-07T11:50:27.011Z,65.74
2023-03-07T11:53:05.126Z,65.31
2023-03-07T11:55:55.458Z,64.21
2023-03-07T11:58:40.704Z,66.09
2023-03-07T12:01:45.864Z,64.53
2023-03-07T12:04:37.148Z,66.12
2023-03-07T12:07:25.992Z,66.17
2023-03-07T12:10:09.766Z,64.68
2023-03-07T12:13:01.376Z,63.74
2023-03-07T12:15:49.267Z,65.01
2023-03-07T12:18:32.376Z,64.83
2023-03-07T12:21:34.388Z,64.97
2023-03-07T12:24:17.977Z,65.12
2023-03-07T12:26:57.916Z,63.60
2023-03-07T12:29:44.550Z,65.73
2023-03-07T12:32:24.450Z,65.00
2023-03-07T12:35:11.096Z,64.68
2023-03-07T12:37:46.587Z,64.12
2023-03-07T12:40:42.969Z,64.62
2023-03-07T12:43:31.240Z,65.41
2023-03-07T12:46:40.371Z,66.63
2023-03-07T12:49:49.252Z,65.81
2023-03-07T12:52:42.288Z,65.08
2023-03-07T12:55:37.348Z,65.76
2023-03-07T12:58:49.593Z,66.74
2023-03-07T13:01:25.902Z,64.79
2023-03-07T13:04:05.381Z,65.10
2023-03-07T13:06:39.994Z,64.18
2023-03-07T13:09:20.160Z,65.55
2023-03-07T13:12:08.662Z,66.77
2023-03-07T13:15:00.600Z,66.85
2023-03-07T13:17:30.648Z,64.01
2023-03-07T13:20:15.937Z,67.16
2023-03-07T13:22:46.114Z,64.32
2023-03-07T13:25:36.184Z,67.22
2023-03-07T13:28:33.576Z,67.92
2023-03-07T13:31:29.300Z,68.30
2023-03-07T13:34:37.856Z,67.58
2023-03-07T13:37:45.316Z,67.80
2023-03-07T13:40:35.858Z,68.22
2023-03-07T13:43:28.106Z,68.27
2023-03-07T13:46:01.041Z,65.84
2023-03-07T13:48:31.414Z,66.24
2023-03-07T13:51:01.541Z,65.84
2023-03-07T13:53:35.199Z,65.86
2023-03-07T13:56:17.937Z,68.68
2023-03-07T13:58:56.742Z,67.06
2023-03-07T14:01:44.456Z,69.34
2023-03-07T14:04:40.012Z,66.65
2023-03-07T14:07:21.617Z,66.77
2023-03-07T14:09:54.193Z,66.42
2023-03-07T14:13:05.693Z,68.59
2023-03-07T14:16:05.111Z,68.98
2023-03-07T14:18:56.917Z,68.75
2023-03-07T14:21:43.472Z,66.71
2023-03-07T14:24:32.385Z,68.13
2023-03-07T14:27:15.387Z,67.83
2023-03-07T14:30:16.611Z,68.51
2023-03-07T14:32:47.081Z,66.38
2023-03-07T14:35:37.404Z,67.98
2023-03-07T14:38:24.726Z,67.55
2023-03-07T14:41:36.852Z,65.36
2023-03-07T14:44:32.190Z,67.62
2023-03-07T14:47:20.617Z,65.43
2023-03-07T14:49:50.789Z,65.30
2023-03-07T14:52:31.034Z,66.10
2023-03-07T14:55:04.329Z,65.54
2023-03-07T14:57:38.914Z,66.44
2023-03-07T15:00:14.580Z,65.74
2023-03-07T15:02:50.875Z,65.60
2023-03-07T15:05:31.588Z,65.89
2023-03-07T15:08:01.988Z,65.10
2023-03-07T15:10:42.230Z,66.81
2023-03-07T15:13:24.201Z,66.77
2023-03-07T15:16:01.100Z,66.29
2023-03-07T15:18:39.511Z,66.68
2023-03-07T15:21:17.170Z,65.97
2023-03-07T15:23:54.026Z,66.66
2023-03-07T15:26:27.001Z,66.35
2023-03-07T15:29:03.079Z,66.79
2023-03-07T15:31:50.144Z,68.12
2023-03-07T15:34:33.634Z,67.15
2023-03-07T15:37:27.464Z,67.94
2023-03-07T15:40:01.891Z,66.33
2023-03-07T15:42:32.112Z,66.19
2023-03-07T15:45:03.860Z,66.36
2023-03-07T15:47:34.573Z,65.91
2023-03-07T15:50:06.897Z,66.51
2023-03-07T15:52:39.745Z,66.36
2023-03-07T15:55:22.231Z,67.80
2023-03-07T15:57:58.653Z,67.21
2023-03-07T16:00:37.809Z,67.37
2023-03-07T16:03:29.781Z,68.57
2023-03-07T16:06:01.563Z,66.44
2023-03-07T16:08:31.821Z,66.56
2023-03-07T16:11:06.046Z,66.60
2023-03-07T16:13:41.124Z,66.77
2023-03-07T16:16:14.208Z,66.68
2023-03-07T16:18:44.490Z,66.32
2023-03-07T16:21:16.062Z,66.57
2023-03-07T16:23:46.998Z,66.18
2023-03-07T16:26:23.954Z,66.48
2023-03-07T16:29:00.665Z,67.19
2023-03-07T16:31:33.654Z,67.14
2023-03-07T16:34:06.864Z,67.28
2023-03-07T16:36:37.204Z,66.37
2023-03-07T16:39:07.420Z,66.41
2023-03-07T16:41:39.588Z,66.93
2023-03-07T16:44:18.561Z,67.29
2023-03-07T16:47:12.994Z,69.55
2023-03-07T16:49:43.479Z,66.80
2023-03-07T16:52:14.392Z,67.69
2023-03-07T16:54:44.580Z,66.73
2023-03-07T16:57:16.748Z,66.90
2023-03-07T16:59:50.227Z,67.33
2023-03-07T17:02:22.005Z,66.92
2023-03-07T17:04:55.013Z,67.07
2023-03-07T17:07:26.744Z,67.07
2023-03-07T17:09:58.552Z,67.53
2023-03-07T17:12:28.841Z,67.41
2023-03-07T17:15:01.075Z,67.27
2023-03-07T17:17:35.448Z,68.20
2023-03-07T17:20:06.446Z,67.46
2023-03-07T17:22:37.354Z,67.78
2023-03-07T17:25:08.494Z,67.27
2023-03-07T17:27:43.419Z,68.13
2023-03-07T17:30:21.594Z,68.46
2023-03-07T17:32:52.302Z,68.21
2023-03-07T17:35:23.432Z,68.43
2023-03-07T17:37:54.379Z,68.71
2023-03-07T17:40:24.716Z,68.16
2023-03-07T17:42:55.364Z,69.65
2023-03-07T17:45:26.368Z,69.20
2023-03-07T17:47:57.092Z,69.66
2023-03-07T17:50:30.015Z,69.69
2023-03-07T17:53:00.398Z,70.10
2023-03-07T17:55:31.368Z,70.36
2023-03-07T17:58:01.744Z,70.41
2023-03-07T18:00:31.996Z,70.18
2023-03-07T18:03:03.273Z,70.71
2023-03-07T18:05:33.775Z,70.20
2023-03-07T18:08:06.916Z,70.78
2023-03-07T18:10:40.199Z,70.79
2023-03-07T18:13:13.104Z,71.19
2023-03-07T18:15:53.190Z,71.58
2023-03-07T18:18:27.830Z,70.76
2023-03-07T18:21:06.317Z,71.89
2023-03-07T18:23:36.993Z,70.97
2023-03-07T18:26:10.024Z,71.25
2023-03-07T18:28:42.972Z,71.42
2023-03-07T18:31:20.705Z,70.99
2023-03-07T18:34:00.538Z,70.88
2023-03-07T18:36:33.893Z,71.08
2023-03-07T18:39:07.791Z,71.46
2023-03-07T18:41:41.364Z,71.17
2023-03-07T18:44:12.585Z,70.50
2023-03-07T18:46:46.205Z,70.97
2023-03-07T18:49:16.784Z,71.03
2023-03-07T18:51:48.686Z,70.79
2023-03-07T18:54:25.226Z,70.23
2023-03-07T18:56:57.083Z,70.70
2023-03-07T18:59:30.638Z,71.22
2023-03-07T19:02:04.500Z,71.38
2023-03-07T19:04:39.836Z,71.51
2023-03-07T19:07:13.031Z,71.41
2023-03-07T19:09:55.146Z,71.16
2023-03-07T19:12:25.772Z,71.09
2023-03-07T19:14:59.229Z,71.12
2023-03-07T19:17:30.926Z,71.12
2023-03-07T19:20:08.061Z,70.73
2023-03-07T19:22:38.923Z,71.13
2023-03-07T19:25:10.345Z,70.84
2023-03-07T19:27:43.160Z,71.95
2023-03-07T19:30:16.699Z,71.50
2023-03-07T19:32:47.017Z,71.47
2023-03-07T19:35:17.456Z,71.65
2023-03-07T19:37:47.854Z,71.80
2023-03-07T19:40:18.105Z,71.74
2023-03-07T19:42:48.271Z,72.01
2023-03-07T19:45:18.938Z,72.16
2023-03-07T19:47:49.164Z,71.92
2023-03-07T19:50:19.598Z,72.83
2023-03-07T19:52:50.467Z,72.51
2023-03-07T19:55:20.906Z,72.35
2023-03-07T19:57:51.090Z,72.21
2023-03-07T20:00:22.011Z,73.11
2023-03-07T20:02:52.213Z,72.35
2023-03-07T20:05:22.479Z,72.58
2023-03-07T20:07:52.882Z,72.74
2023-03-07T20:10:29.158Z,72.28
2023-03-07T20:13:06.484Z,72.86
2023-03-07T20:15:38.936Z,72.13
2023-03-07T20:18:11.441Z,72.54
2023-03-07T20:20:41.837Z,72.45
2023-03-07T20:23:12.018Z,71.83
2023-03-07T20:25:44.195Z,71.78
2023-03-07T20:28:16.561Z,71.99
2023-03-07T20:30:47.003Z,72.15
2023-03-07T20:33:20.801Z,71.45
2023-03-07T20:36:06.428Z,72.82
2023-03-07T20:38:40.758Z,71.90
2023-03-07T20:41:16.506Z,71.86
2023-03-07T20:43:51.874Z,72.14
2023-03-07T20:46:23.494Z,71.67
2023-03-07T20:48:55.331Z,71.11
2023-03-07T20:51:28.682Z,71.94
2023-03-07T20:54:01.546Z,71.81
2023-03-07T20:56:34.052Z,71.69
2023-03-07T20:59:04.715Z,71.65
2023-03-07T21:01:36.037Z,71.54
2023-03-07T21:04:11.177Z,71.20
2023-03-07T21:06:43.750Z,71.01
2023-03-07T21:09:15.770Z,70.72
2023-03-07T21:11:49.305Z,70.84
2023-03-07T21:14:20.401Z,70.85
2023-03-07T21:16:50.526Z,70.23
2023-03-07T21:19:23.589Z,70.86
2023-03-07T21:22:04.547Z,70.48
2023-03-07T21:24:40.729Z,70.86
2023-03-07T21:27:10.848Z,70.66
2023-03-07T21:29:49.598Z,71.03
2023-03-07T21:32:19.726Z,70.67
2023-03-07T21:34:55.311Z,70.52
2023-03-07T21:37:34.000Z,70.40
2023-03-07T21:40:13.953Z,70.73
2023-03-07T21:42:44.207Z,71.05
2023-03-07T21:45:14.691Z,70.85
2023-03-07T21:47:46.001Z,70.83
2023-03-07T21:50:16.501Z,70.30
2023-03-07T21:52:46.896Z,70.75
2023-03-07T21:55:17.535Z,70.43
2023-03-07T21:57:47.946Z,70.04
2023-03-07T22:00:19.763Z,70.26
2023-03-07T22:02:49.992Z,70.16
2023-03-07T22:05:22.932Z,70.32
2023-03-07T22:07:53.026Z,70.22
2023-03-07T22:10:23.220Z,70.04
2023-03-07T22:12:53.367Z,69.94
2023-03-07T22:15:25.683Z,69.46
2023-03-07T22:17:56.196Z,69.08
2023-03-07T22:20:41.324Z,69.21
2023-03-07T22:23:11.492Z,68.35
2023-03-07T22:25:41.704Z,68.69
2023-03-07T22:28:19.505Z,68.22
2023-03-07T22:30:53.477Z,67.85
2023-03-07T22:33:23.601Z,67.76
2023-03-07T22:36:04.298Z,68.21
2023-03-07T22:38:34.495Z,67.84
2023-03-07T22:41:07.380Z,67.29
2023-03-07T22:43:37.994Z,67.70
2023-03-07T22:46:09.108Z,67.60
2023-03-07T22:48:39.976Z,67.44
2023-03-07T22:51:15.421Z,67.92
2023-03-07T22:53:46.079Z,67.44
2023-03-07T22:56:24.720Z,67.80
2023-03-07T22:58:55.376Z,67.80
2023-03-07T23:01:28.086Z,67.57
2023-03-07T23:04:00.052Z,67.96
2023-03-07T23:06:32.088Z,67.78
2023-03-07T23:09:04.058Z,67.56
2023-03-07T23:11:34.602Z,67.70
2023-03-07T23:14:04.810Z,67.40
2023-03-07T23:16:36.537Z,67.80
2023-03-07T23:19:06.762Z,67.92
2023-03-07T23:21:36.888Z,66.95
2023-03-07T23:24:07.307Z,67.14
2023-03-07T23:26:38.655Z,67.53
2023-03-07T23:29:10.089Z,67.08
2023-03-07T23:31:41.428Z,67.39
2023-03-07T23:34:17.633Z,67.44
2023-03-07T23:36:48.144Z,67.42
2023-03-07T23:39:19.247Z,66.92
2023-03-07T23:41:49.389Z,67.18
2023-03-07T23:44:19.688Z,67.20
2023-03-07T23:46:50.294Z,66.66
2023-03-07T23:49:21.117Z,66.91
2023-03-07T23:51:51.185Z,66.95
2023-03-07T23:54:21.407Z,66.69
2023-03-07T23:56:57.475Z,66.08
2023-03-07T23:59:28.793Z,66.11
